Time;durP1;ratioP1;P1;durP2;ratioP2;P2;SDS_P1;SDS_P2;PMS_P1;PMS_P2;Temp;Humidity;BMP_temperature;BMP_pressure;BME280_temperature;BME280_humidity;BME280_pressure;Samples;Min_cycle;Max_cycle;Signal;HPM_P1;HPM_P2
2021/04/17 00:02:19;;;;;;;77.18;43.60;;;;;;;;;;5094861;28;20027;-72
2021/04/17 00:04:45;;;;;;;77.28;43.42;;;;;;;;;;5076616;28;20044;-72
2021/04/17 00:07:12;;;;;;;74.65;41.72;;;;;;;;;;5076910;28;20020;-69
2021/04/17 00:09:39;;;;;;;72.97;39.63;;;;;;;;;;5095321;28;20352;-69
2021/04/17 00:12:06;;;;;;;68.50;39.67;;;;;;;;;;5094972;28;20034;-68
2021/04/17 00:14:34;;;;;;;68.72;37.35;;;;;;;;;;5095195;28;20020;-70
2021/04/17 00:17:01;;;;;;;60.17;36.20;;;;;;;;;;5076570;28;20111;-70
2021/04/17 00:19:27;;;;;;;69.43;37.00;;;;;;;;;;5094630;28;20522;-71
2021/04/17 00:21:53;;;;;;;70.25;37.70;;;;;;;;;;5076429;28;20365;-70
2021/04/17 00:24:20;;;;;;;65.72;36.85;;;;;;;;;;5076555;28;20017;-69
2021/04/17 00:26:46;;;;;;;66.95;36.90;;;;;;;;;;5076232;28;20027;-69
2021/04/17 00:29:12;;;;;;;67.50;37.25;;;;;;;;;;5076458;28;20074;-68
2021/04/17 00:31:39;;;;;;;61.13;33.30;;;;;;;;;;5094289;28;20018;-69
2021/04/17 00:34:06;;;;;;;64.28;34.00;;;;;;;;;;5076037;28;20108;-68
2021/04/17 00:36:32;;;;;;;55.15;35.47;;;;;;;;;;5094747;28;20058;-69
2021/04/17 00:38:58;;;;;;;57.97;35.85;;;;;;;;;;5093886;28;20074;-69
2021/04/17 00:41:24;;;;;;;66.72;35.60;;;;;;;;;;5094428;28;20329;-68
2021/04/17 00:43:51;;;;;;;69.72;39.58;;;;;;;;;;5076231;28;20016;-69
2021/04/17 00:46:18;;;;;;;78.80;41.33;;;;;;;;;;5075916;28;20104;-69
2021/04/17 00:48:44;;;;;;;70.75;39.35;;;;;;;;;;5094275;28;20023;-70
2021/04/17 00:51:11;;;;;;;71.68;41.58;;;;;;;;;;5094539;28;20058;-68
2021/04/17 00:53:37;;;;;;;69.30;38.10;;;;;;;;;;5075759;28;20019;-69
2021/04/17 00:56:07;;;;;;;69.93;39.50;;;;;;;;;;5093869;28;20389;-67
2021/04/17 00:58:33;;;;;;;66.47;37.83;;;;;;;;;;5093905;28;20016;-68
2021/04/17 01:00:59;;;;;;;67.05;37.42;;;;;;;;;;5093671;28;20091;-69
2021/04/17 01:03:30;;;;;;;59.50;35.75;;;;;;;;;;5075967;28;20020;-68
2021/04/17 01:06:00;;;;;;;56.53;36.35;;;;;;;;;;5094141;28;20060;-68
2021/04/17 01:08:29;;;;;;;62.10;35.47;;;;;;;;;;5093748;28;20012;-69
2021/04/17 01:10:57;;;;;;;53.72;33.42;;;;;;;;;;5076751;28;20314;-70
2021/04/17 01:13:23;;;;;;;56.85;33.88;;;;;;;;;;5093727;28;20431;-70
2021/04/17 01:15:51;;;;;;;64.88;35.78;;;;;;;;;;5075585;28;20028;-71
2021/04/17 01:18:17;;;;;;;60.55;35.63;;;;;;;;;;5094257;28;20016;-70
2021/04/17 01:20:47;;;;;;;56.08;33.58;;;;;;;;;;5075197;28;20044;-71
2021/04/17 01:23:13;;;;;;;56.50;34.40;;;;;;;;;;5093805;28;20528;-72
2021/04/17 01:25:43;;;;;;;51.22;30.98;;;;;;;;;;5093865;28;20061;-69
2021/04/17 01:28:09;;;;;;;50.40;29.33;;;;;;;;;;5075891;28;20488;-71
2021/04/17 01:30:35;;;;;;;50.67;30.60;;;;;;;;;;5075766;28;20054;-69
2021/04/17 01:33:01;;;;;;;49.65;31.80;;;;;;;;;;5075620;28;20016;-67
2021/04/17 01:35:28;;;;;;;48.53;31.33;;;;;;;;;;5075297;28;20026;-69
2021/04/17 01:37:54;;;;;;;47.42;31.65;;;;;;;;;;5093836;28;20023;-69
2021/04/17 01:40:23;;;;;;;46.28;29.98;;;;;;;;;;5093930;28;20024;-69
2021/04/17 01:42:50;;;;;;;44.13;29.08;;;;;;;;;;5093120;28;20012;-69
2021/04/17 01:45:18;;;;;;;46.35;28.70;;;;;;;;;;5093989;28;20479;-69
2021/04/17 01:47:44;;;;;;;48.05;30.17;;;;;;;;;;5075599;28;20115;-69
2021/04/17 01:50:11;;;;;;;50.37;31.30;;;;;;;;;;5093405;28;20103;-68
2021/04/17 01:52:38;;;;;;;45.22;28.33;;;;;;;;;;5093918;28;20020;-70
2021/04/17 01:55:04;;;;;;;48.42;30.65;;;;;;;;;;5093395;28;20016;-68
2021/04/17 01:57:31;;;;;;;41.63;28.95;;;;;;;;;;5093056;28;20032;-68
2021/04/17 01:59:57;;;;;;;41.72;27.80;;;;;;;;;;5093568;28;20024;-68
2021/04/17 02:02:23;;;;;;;41.40;28.48;;;;;;;;;;5078226;28;20022;-69
2021/04/17 02:04:50;;;;;;;42.03;28.23;;;;;;;;;;5097119;28;20087;-69
2021/04/17 02:07:16;;;;;;;46.05;28.55;;;;;;;;;;5079201;28;20459;-69
2021/04/17 02:09:43;;;;;;;43.15;28.15;;;;;;;;;;5078829;28;20028;-69
2021/04/17 02:12:09;;;;;;;44.47;27.88;;;;;;;;;;5079079;28;20031;-68
2021/04/17 02:14:36;;;;;;;41.95;27.17;;;;;;;;;;5097828;28;20095;-69
2021/04/17 02:17:08;;;;;;;42.63;27.73;;;;;;;;;;5078590;28;20053;-70
2021/04/17 02:19:34;;;;;;;36.80;25.65;;;;;;;;;;5079327;28;20030;-68
2021/04/17 02:22:00;;;;;;;40.33;28.17;;;;;;;;;;5096882;28;20051;-70
2021/04/17 02:24:27;;;;;;;41.90;28.13;;;;;;;;;;5096498;28;20016;-67
2021/04/17 02:26:54;;;;;;;39.60;26.77;;;;;;;;;;5097619;28;20452;-68
2021/04/17 02:29:20;;;;;;;42.90;28.50;;;;;;;;;;5078760;28;20028;-68
2021/04/17 02:31:47;;;;;;;40.53;27.20;;;;;;;;;;5096384;28;20043;-68
2021/04/17 02:34:13;;;;;;;37.60;27.20;;;;;;;;;;5096984;28;20058;-69
2021/04/17 02:36:39;;;;;;;38.90;27.08;;;;;;;;;;5096473;28;20074;-69
2021/04/17 02:39:06;;;;;;;38.20;27.73;;;;;;;;;;5078297;28;20016;-69
2021/04/17 02:41:32;;;;;;;34.53;24.85;;;;;;;;;;5096709;28;20083;-69
2021/04/17 02:43:58;;;;;;;34.75;26.17;;;;;;;;;;5078699;28;20039;-69
2021/04/17 02:46:24;;;;;;;38.88;26.50;;;;;;;;;;5096328;28;20069;-71
2021/04/17 02:48:50;;;;;;;35.00;24.23;;;;;;;;;;5097276;28;20035;-69
2021/04/17 02:51:17;;;;;;;32.42;23.05;;;;;;;;;;5096549;28;20016;-71
2021/04/17 02:53:43;;;;;;;32.15;24.08;;;;;;;;;;5095922;28;20013;-69
2021/04/17 02:56:09;;;;;;;34.53;22.63;;;;;;;;;;5096381;28;20028;-69
2021/04/17 02:58:35;;;;;;;33.45;24.45;;;;;;;;;;5096215;28;20467;-70
2021/04/17 03:01:02;;;;;;;34.80;24.15;;;;;;;;;;5096382;28;20027;-69
2021/04/17 03:03:28;;;;;;;32.92;22.65;;;;;;;;;;5096907;28;20026;-68
2021/04/17 03:05:54;;;;;;;34.60;25.63;;;;;;;;;;5077830;28;20107;-71
2021/04/17 03:08:20;;;;;;;36.97;26.38;;;;;;;;;;5095949;28;20476;-70
2021/04/17 03:10:46;;;;;;;32.63;23.90;;;;;;;;;;5078266;28;20394;-69
2021/04/17 03:13:13;;;;;;;34.05;23.77;;;;;;;;;;5095321;28;20019;-70
2021/04/17 03:15:39;;;;;;;36.08;23.27;;;;;;;;;;5096294;28;20024;-69
2021/04/17 03:18:05;;;;;;;36.80;24.90;;;;;;;;;;5077859;28;20111;-70
2021/04/17 03:20:31;;;;;;;37.30;25.27;;;;;;;;;;5077221;28;20042;-69
2021/04/17 03:22:58;;;;;;;35.47;24.23;;;;;;;;;;5077957;28;20027;-70
2021/04/17 03:25:24;;;;;;;33.63;23.33;;;;;;;;;;5078607;28;20016;-71
2021/04/17 03:27:50;;;;;;;32.50;24.10;;;;;;;;;;5077392;28;20016;-69
2021/04/17 03:30:18;;;;;;;37.83;23.83;;;;;;;;;;5095472;28;20241;-70
2021/04/17 03:32:44;;;;;;;32.97;23.33;;;;;;;;;;5077621;28;20027;-70
2021/04/17 03:35:11;;;;;;;31.77;22.42;;;;;;;;;;5077116;28;20368;-67
2021/04/17 03:37:38;;;;;;;33.72;22.67;;;;;;;;;;5106879;28;20360;-67
2021/04/17 03:40:05;;;;;;;27.97;22.30;;;;;;;;;;5100894;28;20028;-68
2021/04/17 03:42:31;;;;;;;32.17;23.27;;;;;;;;;;5085484;28;20483;-68
2021/04/17 03:44:57;;;;;;;38.10;23.48;;;;;;;;;;5105958;28;20015;-69
2021/04/17 03:47:24;;;;;;;33.53;22.13;;;;;;;;;;5104586;28;20016;-69
2021/04/17 03:49:50;;;;;;;29.40;21.60;;;;;;;;;;5105776;28;20083;-67
2021/04/17 03:52:16;;;;;;;30.13;22.05;;;;;;;;;;5100259;28;20155;-68
2021/04/17 03:54:42;;;;;;;30.40;21.15;;;;;;;;;;5100059;28;20073;-69
2021/04/17 03:57:08;;;;;;;40.78;25.58;;;;;;;;;;5086815;28;20043;-69
2021/04/17 03:59:34;;;;;;;43.83;28.92;;;;;;;;;;5094321;28;20363;-68
2021/04/17 04:02:01;;;;;;;49.60;30.40;;;;;;;;;;5095688;28;20026;-68
2021/04/17 04:04:27;;;;;;;39.22;24.98;;;;;;;;;;5114994;28;20022;-70
2021/04/17 04:06:53;;;;;;;43.03;26.38;;;;;;;;;;5096710;28;20455;-68
2021/04/17 04:09:19;;;;;;;36.70;24.92;;;;;;;;;;5114360;28;20015;-69
2021/04/17 04:11:45;;;;;;;33.85;23.55;;;;;;;;;;5115134;28;20344;-69
2021/04/17 04:14:11;;;;;;;38.60;25.75;;;;;;;;;;5115087;28;20012;-68
2021/04/17 04:16:37;;;;;;;49.53;29.13;;;;;;;;;;5114907;28;20031;-69
2021/04/17 04:19:03;;;;;;;49.30;28.83;;;;;;;;;;5097008;28;20020;-68
2021/04/17 04:21:30;;;;;;;49.72;28.65;;;;;;;;;;5096856;28;20043;-68
2021/04/17 04:23:56;;;;;;;43.85;26.58;;;;;;;;;;5114512;28;20011;-69
2021/04/17 04:26:22;;;;;;;38.53;23.52;;;;;;;;;;5096874;28;20026;-68
2021/04/17 04:28:48;;;;;;;37.40;24.10;;;;;;;;;;5115089;28;20015;-69
2021/04/17 04:31:14;;;;;;;42.83;26.98;;;;;;;;;;5114388;28;20345;-70
2021/04/17 04:33:40;;;;;;;42.92;25.85;;;;;;;;;;5096727;28;20463;-69
2021/04/17 04:36:07;;;;;;;51.65;33.58;;;;;;;;;;5114864;28;20070;-68
2021/04/17 04:38:33;;;;;;;60.15;36.65;;;;;;;;;;5114306;28;20054;-68
2021/04/17 04:40:59;;;;;;;63.28;39.13;;;;;;;;;;5115154;28;20073;-69
2021/04/17 04:43:25;;;;;;;68.72;40.72;;;;;;;;;;5114826;28;20011;-67
2021/04/17 04:45:52;;;;;;;61.67;36.17;;;;;;;;;;5114668;28;20394;-69
2021/04/17 04:48:18;;;;;;;55.30;34.25;;;;;;;;;;5097057;28;20491;-71
2021/04/17 04:50:44;;;;;;;49.03;30.52;;;;;;;;;;5114630;28;20471;-69
2021/04/17 04:53:10;;;;;;;51.83;30.23;;;;;;;;;;5114395;28;20088;-71
2021/04/17 04:55:36;;;;;;;48.13;29.73;;;;;;;;;;5096315;28;20019;-67
2021/04/17 04:58:03;;;;;;;46.10;28.15;;;;;;;;;;5114684;28;20019;-69
2021/04/17 05:00:29;;;;;;;45.28;29.50;;;;;;;;;;5114320;28;20068;-68
2021/04/17 05:02:55;;;;;;;42.50;26.40;;;;;;;;;;5114207;28;20413;-68
2021/04/17 05:05:21;;;;;;;36.40;25.65;;;;;;;;;;5095962;28;20051;-68
2021/04/17 05:07:47;;;;;;;32.92;24.88;;;;;;;;;;5115028;28;20012;-68
2021/04/17 05:10:14;;;;;;;36.95;23.67;;;;;;;;;;5096109;28;20023;-69
2021/04/17 05:12:40;;;;;;;33.50;23.27;;;;;;;;;;5114362;28;20452;-70
2021/04/17 05:15:07;;;;;;;35.22;24.27;;;;;;;;;;5114061;28;20557;-69
2021/04/17 05:17:33;;;;;;;34.85;23.30;;;;;;;;;;5114359;28;20034;-70
2021/04/17 05:19:59;;;;;;;35.30;24.20;;;;;;;;;;5114059;28;20043;-70
2021/04/17 05:22:25;;;;;;;32.50;22.70;;;;;;;;;;5114014;28;20118;-71
2021/04/17 05:24:52;;;;;;;30.70;23.20;;;;;;;;;;5096013;28;20126;-71
2021/04/17 05:27:18;;;;;;;30.20;22.23;;;;;;;;;;5114028;28;20090;-69
2021/04/17 05:29:44;;;;;;;35.72;24.65;;;;;;;;;;5114352;28;20448;-71
2021/04/17 05:32:10;;;;;;;35.30;24.55;;;;;;;;;;5113942;28;20468;-69
2021/04/17 05:34:37;;;;;;;34.63;24.77;;;;;;;;;;5095658;28;20325;-70
2021/04/17 05:37:03;;;;;;;32.55;24.00;;;;;;;;;;5118357;28;20028;-68
2021/04/17 05:39:29;;;;;;;39.95;26.70;;;;;;;;;;5118554;28;20019;-65
2021/04/17 05:41:55;;;;;;;38.53;26.33;;;;;;;;;;5100196;28;20016;-66
2021/04/17 05:44:21;;;;;;;35.28;24.15;;;;;;;;;;5118018;28;20020;-66
2021/04/17 05:46:47;;;;;;;32.83;23.23;;;;;;;;;;5117950;28;20038;-68
2021/04/17 05:49:14;;;;;;;34.55;24.88;;;;;;;;;;5118197;28;20022;-65
2021/04/17 05:51:41;;;;;;;35.58;24.48;;;;;;;;;;5118164;28;20046;-67
2021/04/17 05:54:07;;;;;;;35.65;26.17;;;;;;;;;;5117826;28;20452;-64
2021/04/17 05:56:33;;;;;;;33.03;23.38;;;;;;;;;;5099719;28;20495;-63
2021/04/17 05:59:00;;;;;;;35.90;24.05;;;;;;;;;;5117690;28;20377;-66
2021/04/17 06:01:26;;;;;;;32.97;23.25;;;;;;;;;;5099364;28;20543;-68
2021/04/17 06:03:53;;;;;;;31.23;22.20;;;;;;;;;;5117648;28;20336;-69
2021/04/17 06:06:19;;;;;;;35.63;24.73;;;;;;;;;;5117918;28;20328;-67
2021/04/17 06:08:45;;;;;;;38.08;22.92;;;;;;;;;;5117220;28;20367;-64
2021/04/17 06:11:11;;;;;;;35.50;24.30;;;;;;;;;;5118035;28;20084;-67
2021/04/17 06:13:38;;;;;;;40.40;26.33;;;;;;;;;;5117427;28;20024;-66
2021/04/17 06:16:05;;;;;;;40.67;27.45;;;;;;;;;;5117292;28;20103;-65
2021/04/17 06:18:31;;;;;;;;;;;;;;;;;;5118062;28;20401;-66
2021/04/17 06:20:57;;;;;;;37.60;25.83;;;;;;;;;;5117452;28;19915;-66
2021/04/17 06:23:23;;;;;;;36.85;24.20;;;;;;;;;;5117242;28;20115;-65
2021/04/17 06:25:49;;;;;;;36.20;24.30;;;;;;;;;;5117796;28;20107;-68
2021/04/17 06:28:16;;;;;;;42.17;26.02;;;;;;;;;;5117126;28;20409;-67
2021/04/17 06:30:42;;;;;;;42.08;24.35;;;;;;;;;;5117407;28;20018;-67
2021/04/17 06:33:11;;;;;;;40.00;26.27;;;;;;;;;;5117596;28;20038;-68
2021/04/17 06:35:38;;;;;;;38.05;24.10;;;;;;;;;;5116644;28;20051;-68
2021/04/17 06:38:05;;;;;;;37.90;26.38;;;;;;;;;;5117025;28;20461;-69
2021/04/17 06:40:31;;;;;;;34.92;25.23;;;;;;;;;;5117538;28;20108;-67
2021/04/17 06:43:01;;;;;;;34.38;25.05;;;;;;;;;;5116602;28;20456;-66
2021/04/17 06:45:28;;;;;;;35.78;25.50;;;;;;;;;;5117101;28;20026;-65
2021/04/17 06:47:55;;;;;;;39.90;27.27;;;;;;;;;;5116441;28;20467;-67
2021/04/17 06:50:21;;;;;;;43.77;27.07;;;;;;;;;;5116961;28;20019;-66
2021/04/17 06:52:48;;;;;;;40.15;26.38;;;;;;;;;;5116944;28;20023;-67
2021/04/17 06:55:14;;;;;;;49.60;30.37;;;;;;;;;;5116650;28;20360;-68
2021/04/17 06:57:41;;;;;;;40.13;26.95;;;;;;;;;;5098237;28;20670;-67
2021/04/17 07:00:10;;;;;;;53.38;36.40;;;;;;;;;;5098556;28;20012;-68
2021/04/17 07:02:36;;;;;;;58.83;37.85;;;;;;;;;;5117051;28;20390;-67
2021/04/17 07:05:03;;;;;;;48.47;32.72;;;;;;;;;;5116276;28;20118;-68
2021/04/17 07:07:36;;;;;;;43.13;27.98;;;;;;;;;;5116762;28;20024;-67
2021/04/17 07:10:02;;;;;;;77.90;45.80;;;;;;;;;;5117218;28;20028;-66
2021/04/17 07:12:28;;;;;;;36.92;27.42;;;;;;;;;;5116268;28;20098;-68
2021/04/17 07:14:55;;;;;;;46.80;32.22;;;;;;;;;;5116532;28;20054;-70
2021/04/17 07:17:21;;;;;;;48.53;33.53;;;;;;;;;;5116754;28;20156;-68
2021/04/17 07:19:48;;;;;;;34.70;25.50;;;;;;;;;;5116166;28;20060;-69
2021/04/17 07:22:18;;;;;;;36.72;26.40;;;;;;;;;;5116331;28;20443;-68
2021/04/17 07:24:44;;;;;;;46.35;33.83;;;;;;;;;;5097793;28;20075;-67
2021/04/17 07:27:29;;;;;;;45.72;35.90;;;;;;;;;;5098027;28;20038;-68
2021/04/17 07:29:55;;;;;;;34.65;25.15;;;;;;;;;;5116009;28;20088;-67
2021/04/17 07:32:21;;;;;;;59.55;43.58;;;;;;;;;;5097647;28;20043;-66
2021/04/17 07:35:07;;;;;;;53.55;38.13;;;;;;;;;;5097855;28;20022;-66
2021/04/17 07:37:34;;;;;;;31.02;21.33;;;;;;;;;;5116074;28;20114;-68
2021/04/17 07:40:17;;;;;;;48.00;33.03;;;;;;;;;;5115855;28;20181;-70
2021/04/17 07:42:44;;;;;;;63.05;38.67;;;;;;;;;;5115998;28;20026;-67
2021/04/17 07:45:20;;;;;;;181.85;99.97;;;;;;;;;;5115739;28;20367;-69
2021/04/17 07:47:46;;;;;;;182.93;109.03;;;;;;;;;;5115571;28;20536;-67
2021/04/17 07:50:12;;;;;;;38.53;27.30;;;;;;;;;;5115878;28;20025;-68
2021/04/17 07:52:39;;;;;;;41.55;26.23;;;;;;;;;;5115810;28;20049;-69
2021/04/17 07:55:07;;;;;;;58.92;40.13;;;;;;;;;;5115762;28;20077;-67
2021/04/17 07:57:45;;;;;;;116.10;75.57;;;;;;;;;;5115615;28;20076;-70
2021/04/17 08:00:16;;;;;;;62.15;39.95;;;;;;;;;;5114621;28;20020;-68
2021/04/17 08:02:43;;;;;;;56.25;40.92;;;;;;;;;;5097725;28;20474;-66
2021/04/17 08:05:10;;;;;;;46.40;31.98;;;;;;;;;;5115605;28;20019;-68
2021/04/17 08:07:36;;;;;;;28.77;21.03;;;;;;;;;;5115228;28;20024;-67
2021/04/17 08:10:03;;;;;;;53.75;36.85;;;;;;;;;;5115426;28;20244;-71
2021/04/17 08:12:30;;;;;;;31.13;22.90;;;;;;;;;;5097124;28;20016;-68
2021/04/17 08:14:56;;;;;;;31.73;24.08;;;;;;;;;;5115433;28;20019;-68
2021/04/17 08:17:22;;;;;;;39.33;28.50;;;;;;;;;;5115508;28;20027;-68
2021/04/17 08:19:48;;;;;;;26.55;19.10;;;;;;;;;;5115042;28;20145;-69
2021/04/17 08:22:16;;;;;;;28.13;18.90;;;;;;;;;;5114553;28;20476;-68
2021/04/17 08:24:42;;;;;;;30.88;21.83;;;;;;;;;;5096945;28;20055;-69
2021/04/17 08:27:09;;;;;;;33.97;23.53;;;;;;;;;;5115198;28;20015;-69
2021/04/17 08:29:42;;;;;;;38.93;27.50;;;;;;;;;;5115063;28;20058;-68
2021/04/17 08:32:21;;;;;;;48.40;33.17;;;;;;;;;;5115448;28;20248;-70
2021/04/17 08:34:57;;;;;;;70.30;48.30;;;;;;;;;;5115220;28;20444;-70
2021/04/17 08:37:24;;;;;;;35.78;24.73;;;;;;;;;;5114941;28;20023;-69
2021/04/17 08:39:53;;;;;;;62.83;40.58;;;;;;;;;;5114908;28;20045;-70
2021/04/17 08:42:37;;;;;;;27.27;18.52;;;;;;;;;;5096278;28;20402;-71
2021/04/17 08:45:11;;;;;;;17.85;14.05;;;;;;;;;;5115153;28;20027;-69
2021/04/17 08:47:46;;;;;;;17.98;13.95;;;;;;;;;;5114786;28;20081;-70
2021/04/17 08:50:22;;;;;;;13.23;11.25;;;;;;;;;;5096237;28;20012;-70
2021/04/17 08:52:55;;;;;;;13.23;10.50;;;;;;;;;;5115257;28;20023;-70
2021/04/17 08:55:21;;;;;;;12.68;9.77;;;;;;;;;;5114418;28;20047;-70
2021/04/17 08:57:55;;;;;;;17.83;13.18;;;;;;;;;;5114297;28;20027;-71
2021/04/17 09:00:21;;;;;;;18.30;14.30;;;;;;;;;;5096387;28;20026;-71
2021/04/17 09:02:50;;;;;;;18.40;13.27;;;;;;;;;;5096013;28;20061;-70
2021/04/17 09:05:17;;;;;;;15.57;13.23;;;;;;;;;;5114526;28;20081;-70
2021/04/17 09:07:46;;;;;;;19.10;13.32;;;;;;;;;;5114550;28;20016;-71
2021/04/17 09:10:24;;;;;;;16.38;11.70;;;;;;;;;;5114566;28;20030;-70
2021/04/17 09:13:10;;;;;;;18.25;13.30;;;;;;;;;;5114427;28;20520;-70
2021/04/17 09:15:51;;;;;;;20.33;16.75;;;;;;;;;;5114923;28;20018;-70
2021/04/17 09:18:36;;;;;;;24.17;17.13;;;;;;;;;;5095836;28;20110;-71
2021/04/17 09:21:05;;;;;;;23.60;17.17;;;;;;;;;;5114231;28;20047;-69
2021/04/17 09:23:41;;;;;;;18.27;14.65;;;;;;;;;;5113678;28;20016;-70
2021/04/17 09:26:08;;;;;;;26.85;19.25;;;;;;;;;;5096096;28;20463;-70
2021/04/17 09:28:38;;;;;;;30.60;21.27;;;;;;;;;;5113983;28;20478;-71
2021/04/17 09:31:05;;;;;;;31.52;22.00;;;;;;;;;;5113919;28;20511;-70
2021/04/17 09:33:32;;;;;;;30.08;22.83;;;;;;;;;;5114222;28;20026;-67
2021/04/17 09:35:58;;;;;;;34.15;22.90;;;;;;;;;;5096440;28;20031;-68
2021/04/17 09:38:29;;;;;;;27.40;19.50;;;;;;;;;;5113545;28;20091;-69
2021/04/17 09:40:56;;;;;;;27.23;18.42;;;;;;;;;;5114159;28;20027;-68
2021/04/17 09:43:33;;;;;;;22.60;18.00;;;;;;;;;;5095937;28;20043;-68
2021/04/17 09:46:00;;;;;;;23.27;16.67;;;;;;;;;;5113987;28;20032;-70
2021/04/17 09:48:27;;;;;;;22.98;14.98;;;;;;;;;;5113836;28;20039;-68
2021/04/17 09:50:57;;;;;;;22.03;16.57;;;;;;;;;;5095574;28;20023;-68
2021/04/17 09:53:29;;;;;;;27.10;17.20;;;;;;;;;;5113572;28;20125;-69
2021/04/17 09:55:55;;;;;;;35.58;17.80;;;;;;;;;;5114225;28;20479;-68
2021/04/17 09:58:21;;;;;;;26.33;17.35;;;;;;;;;;5114013;28;20121;-68
2021/04/17 10:00:48;;;;;;;26.05;13.27;;;;;;;;;;5113710;28;20023;-70
2021/04/17 10:03:14;;;;;;;23.85;13.65;;;;;;;;;;5113689;28;20023;-69
2021/04/17 10:05:40;;;;;;;34.63;19.83;;;;;;;;;;5113571;28;20034;-69
2021/04/17 10:08:07;;;;;;;27.65;16.27;;;;;;;;;;5113839;28;20021;-69
2021/04/17 10:10:38;;;;;;;18.63;14.50;;;;;;;;;;5114216;28;20470;-69
2021/04/17 10:13:04;;;;;;;19.58;14.77;;;;;;;;;;5113550;28;20043;-67
2021/04/17 10:15:32;;;;;;;26.50;17.80;;;;;;;;;;5095571;28;20033;-68
2021/04/17 10:17:59;;;;;;;25.45;18.90;;;;;;;;;;5114107;28;20024;-68
2021/04/17 10:20:25;;;;;;;23.08;15.90;;;;;;;;;;5113299;28;20115;-69
2021/04/17 10:22:55;;;;;;;22.10;13.68;;;;;;;;;;5115788;28;20016;-68
2021/04/17 10:25:34;;;;;;;20.40;14.85;;;;;;;;;;5117522;28;20023;-68
2021/04/17 10:28:13;;;;;;;27.20;18.02;;;;;;;;;;5117182;28;20022;-68
2021/04/17 10:30:39;;;;;;;24.35;17.48;;;;;;;;;;5112106;28;20023;-69
2021/04/17 10:33:12;;;;;;;23.38;16.65;;;;;;;;;;5106674;28;20028;-68
2021/04/17 10:35:38;;;;;;;25.08;16.90;;;;;;;;;;5088124;28;20428;-70
2021/04/17 10:38:05;;;;;;;20.77;15.02;;;;;;;;;;5106438;28;20053;-69
2021/04/17 10:40:31;;;;;;;20.02;15.57;;;;;;;;;;5104184;28;20091;-68
2021/04/17 10:42:58;;;;;;;25.75;16.13;;;;;;;;;;5105889;28;20035;-68
2021/04/17 10:45:25;;;;;;;19.23;14.60;;;;;;;;;;5103771;28;20019;-68
2021/04/17 10:47:57;;;;;;;20.58;14.80;;;;;;;;;;5078239;28;20020;-70
2021/04/17 10:50:24;;;;;;;19.23;15.00;;;;;;;;;;5079099;28;20020;-69
2021/04/17 10:53:09;;;;;;;18.75;15.63;;;;;;;;;;5096603;28;20047;-69
2021/04/17 10:55:35;;;;;;;18.80;14.85;;;;;;;;;;5096260;28;20020;-69
2021/04/17 10:58:02;;;;;;;23.58;15.98;;;;;;;;;;5096503;28;20087;-69
2021/04/17 11:00:29;;;;;;;21.38;15.40;;;;;;;;;;5078316;28;20023;-68
2021/04/17 11:02:55;;;;;;;26.60;16.90;;;;;;;;;;5096242;28;20080;-69
2021/04/17 11:05:21;;;;;;;20.67;16.33;;;;;;;;;;5096676;28;20389;-69
2021/04/17 11:07:47;;;;;;;18.98;14.45;;;;;;;;;;5078158;28;20558;-69
2021/04/17 11:10:13;;;;;;;21.00;15.63;;;;;;;;;;5077841;28;20444;-68
2021/04/17 11:12:40;;;;;;;22.23;15.52;;;;;;;;;;5095964;28;20020;-70
2021/04/17 11:15:32;;;;;;;19.17;14.77;;;;;;;;;;5085228;28;20340;-67
2021/04/17 11:18:12;;;;;;;20.63;16.33;;;;;;;;;;5099127;28;20476;-69
2021/04/17 11:20:58;;;;;;;21.10;15.80;;;;;;;;;;5102154;28;20039;-66
2021/04/17 11:23:34;;;;;;;20.37;15.73;;;;;;;;;;5105674;28;20023;-66
2021/04/17 11:26:01;;;;;;;21.30;17.55;;;;;;;;;;5098401;28;20042;-66
2021/04/17 11:28:27;;;;;;;21.58;15.93;;;;;;;;;;5095724;28;20457;-68
2021/04/17 11:30:57;;;;;;;21.38;15.38;;;;;;;;;;5077433;28;20024;-64
2021/04/17 11:33:23;;;;;;;25.80;21.70;;;;;;;;;;5077543;28;20032;-65
2021/04/17 11:35:50;;;;;;;25.58;17.05;;;;;;;;;;5095721;28;20456;-65
2021/04/17 11:38:16;;;;;;;24.77;17.40;;;;;;;;;;5095148;28;20067;-65
2021/04/17 11:40:42;;;;;;;21.20;15.07;;;;;;;;;;5095727;28;20023;-64
2021/04/17 11:43:09;;;;;;;17.75;13.05;;;;;;;;;;5095375;28;20046;-64
2021/04/17 11:45:35;;;;;;;23.13;15.90;;;;;;;;;;5095554;28;20024;-64
2021/04/17 11:48:03;;;;;;;23.20;16.05;;;;;;;;;;5095269;28;20411;-64
2021/04/17 11:50:29;;;;;;;19.98;14.93;;;;;;;;;;5094911;28;20368;-64
2021/04/17 11:52:55;;;;;;;19.23;14.77;;;;;;;;;;5095428;28;20016;-62
2021/04/17 11:55:23;;;;;;;16.13;13.02;;;;;;;;;;5095329;28;20032;-64
2021/04/17 11:57:49;;;;;;;32.92;17.25;;;;;;;;;;5094695;28;20024;-66
2021/04/17 12:00:15;;;;;;;26.13;16.27;;;;;;;;;;5095315;28;20027;-66
2021/04/17 12:02:41;;;;;;;28.40;16.55;;;;;;;;;;5095497;28;20035;-64
2021/04/17 12:05:08;;;;;;;19.75;13.43;;;;;;;;;;5094894;28;20022;-64
2021/04/17 12:07:34;;;;;;;16.45;13.48;;;;;;;;;;5095491;28;20457;-64
2021/04/17 12:10:00;;;;;;;18.30;14.35;;;;;;;;;;5094892;28;20098;-64
2021/04/17 12:12:28;;;;;;;17.27;13.43;;;;;;;;;;5094767;28;20483;-64
2021/04/17 12:14:54;;;;;;;16.10;13.25;;;;;;;;;;5095039;28;20107;-64
2021/04/17 12:17:20;;;;;;;20.10;15.43;;;;;;;;;;5094666;28;20106;-64
2021/04/17 12:19:46;;;;;;;20.55;16.27;;;;;;;;;;5094659;28;20020;-65
2021/04/17 12:22:12;;;;;;;19.27;16.35;;;;;;;;;;5095093;28;20433;-65
2021/04/17 12:24:38;;;;;;;16.63;13.75;;;;;;;;;;5094859;28;20418;-65
2021/04/17 12:27:05;;;;;;;17.38;13.80;;;;;;;;;;5094233;28;20016;-64
2021/04/17 12:29:31;;;;;;;17.48;14.85;;;;;;;;;;5094971;28;20020;-64
2021/04/17 12:31:58;;;;;;;17.17;14.25;;;;;;;;;;5094732;28;20085;-65
2021/04/17 12:34:24;;;;;;;16.20;13.35;;;;;;;;;;5094423;28;20030;-64
2021/04/17 12:36:50;;;;;;;16.42;12.80;;;;;;;;;;5094561;28;20032;-64
2021/04/17 12:39:17;;;;;;;18.08;14.35;;;;;;;;;;5094473;28;20008;-64
2021/04/17 12:41:43;;;;;;;16.90;13.93;;;;;;;;;;5094296;28;20020;-65
2021/04/17 12:44:10;;;;;;;17.33;14.25;;;;;;;;;;5094228;28;20024;-65
2021/04/17 12:46:36;;;;;;;;;;;;;;;;;;5076000;28;20168;-66
2021/04/17 12:49:02;;;;;;;22.42;15.70;;;;;;;;;;5091597;28;20403;-64
2021/04/17 12:51:29;;;;;;;16.45;13.40;;;;;;;;;;5094866;28;20138;-65
2021/04/17 12:53:56;;;;;;;19.75;15.63;;;;;;;;;;5100746;28;20114;-65
2021/04/17 12:56:22;;;;;;;15.52;13.20;;;;;;;;;;5099745;28;20035;-65
2021/04/17 12:58:48;;;;;;;19.65;14.80;;;;;;;;;;5100114;28;20024;-65
2021/04/17 13:01:14;;;;;;;18.67;13.25;;;;;;;;;;5098889;28;20368;-65
2021/04/17 13:03:40;;;;;;;16.70;12.43;;;;;;;;;;5102191;28;20016;-65
2021/04/17 13:06:06;;;;;;;23.52;17.55;;;;;;;;;;5099699;28;20027;-65
2021/04/17 13:08:32;;;;;;;15.75;13.20;;;;;;;;;;5103158;28;20098;-66
2021/04/17 13:10:59;;;;;;;19.25;13.70;;;;;;;;;;5100301;28;20011;-65
2021/04/17 13:13:25;;;;;;;20.48;13.60;;;;;;;;;;5097826;28;20023;-65
2021/04/17 13:15:51;;;;;;;20.58;13.93;;;;;;;;;;5097340;28;20927;-65
2021/04/17 13:18:17;;;;;;;16.35;13.52;;;;;;;;;;5095968;28;20035;-64
2021/04/17 13:20:44;;;;;;;15.65;12.38;;;;;;;;;;5096629;28;20378;-65
2021/04/17 13:23:10;;;;;;;17.55;14.60;;;;;;;;;;5092092;28;20036;-67
2021/04/17 13:25:36;;;;;;;16.55;14.38;;;;;;;;;;5095524;28;20024;-66
2021/04/17 13:28:03;;;;;;;15.25;12.82;;;;;;;;;;5099395;28;20024;-66
2021/04/17 13:30:29;;;;;;;15.90;13.50;;;;;;;;;;5096679;28;20036;-66
2021/04/17 13:32:55;;;;;;;45.70;29.42;;;;;;;;;;5097729;28;20012;-68
2021/04/17 13:35:21;;;;;;;43.05;26.38;;;;;;;;;;5100907;28;20020;-67
2021/04/17 13:37:48;;;;;;;25.38;17.50;;;;;;;;;;5097431;28;20499;-67
2021/04/17 13:40:14;;;;;;;15.02;13.27;;;;;;;;;;5083949;28;20023;-67
2021/04/17 13:42:40;;;;;;;15.35;11.95;;;;;;;;;;5102621;28;20047;-68
2021/04/17 13:45:06;;;;;;;13.90;11.63;;;;;;;;;;5076401;28;20031;-68
2021/04/17 13:47:33;;;;;;;15.07;12.85;;;;;;;;;;5100406;28;20402;-68
2021/04/17 13:49:59;;;;;;;13.52;11.82;;;;;;;;;;5101146;28;20042;-67
2021/04/17 13:52:25;;;;;;;15.95;13.90;;;;;;;;;;5100478;28;20019;-66
2021/04/17 13:54:52;;;;;;;13.70;11.05;;;;;;;;;;5104167;28;20016;-67
2021/04/17 13:57:18;;;;;;;14.63;12.95;;;;;;;;;;5101492;28;20024;-67
2021/04/17 13:59:44;;;;;;;15.77;13.23;;;;;;;;;;5107327;28;20111;-67
2021/04/17 14:02:10;;;;;;;18.10;13.35;;;;;;;;;;5102948;28;20464;-66
2021/04/17 14:04:39;;;;;;;15.15;12.85;;;;;;;;;;5103831;28;20023;-68
2021/04/17 14:07:05;;;;;;;19.08;13.32;;;;;;;;;;5097482;28;20028;-66
2021/04/17 14:09:31;;;;;;;19.52;15.93;;;;;;;;;;5097254;28;20067;-66
2021/04/17 14:11:58;;;;;;;19.52;14.73;;;;;;;;;;5100892;28;20504;-66
2021/04/17 14:14:24;;;;;;;17.65;13.57;;;;;;;;;;5101755;28;20525;-66
2021/04/17 14:16:50;;;;;;;14.52;12.18;;;;;;;;;;5101026;28;20050;-66
2021/04/17 14:19:16;;;;;;;13.55;12.13;;;;;;;;;;5101518;28;20432;-68
2021/04/17 14:21:42;;;;;;;14.25;12.18;;;;;;;;;;5105733;28;20070;-65